Latest Weather Observations for Cabramurra

IDN60801

Issued at 11:35 am EST Friday 1 August 2014 (issued every 30 minutes, with the page automatically refreshed every 10 minutes)

About weather observations | Map of weather stations | Latest weather observations for NSW | Other Formats
Station Details ID: 072161 Name: CABRAMURRA SMHEA AWS Lat: -35.94 Lon: 148.38 Height: 1482.4 m
Data from the previous 72 hours. | See also: Recent months at Cabramurra
Date/Time
EST
Temp
°C
App
Temp
°C
Dew
Point
Rel
Hum
%
Delta-T
°C
Wind Press
QNH
hPa
Press
MSL
hPa
Rain
since 9 am
mm
Dir
 
Spd
km/h
Gust
km/h
Spd
kts
Gust
kts
01/11:30am -3.5 -10.5 -3.6 99 -0.1 W 24 33 13 18 - - 0.0
01/11:22am -3.4 -11.2 -3.5 99 -0.1 W 28 46 15 25 - - 0.0
01/11:00am -3.8 -10.5 -3.9 99 -0.1 WNW 22 32 12 17 - - 0.0
01/10:30am -3.9 -12.1 -4.0 99 -0.1 WNW 30 48 16 26 - - 0.0
01/10:00am -4.0 -11.8 -4.1 99 -0.1 WNW 28 46 15 25 - - 0.0
01/09:56am -4.0 -11.8 -4.1 99 -0.1 WNW 28 46 15 25 - - 0.0
01/09:30am -4.1 -11.6 -4.2 99 -0.1 WNW 26 35 14 19 - - 0.0
01/09:00am -4.3 -11.8 -4.4 99 -0.2 W 26 43 14 23 - - 3.8
01/08:30am -4.1 -13.3 -4.2 99 -0.1 WNW 35 54 19 29 - - 3.8
01/08:14am -4.1 -12.3 -4.2 99 -0.1 WNW 30 50 16 27 - - 3.8
01/08:00am -4.1 -12.7 -4.2 99 -0.1 WNW 32 43 17 23 - - 3.8
01/07:30am -4.1 -11.6 -4.2 99 -0.1 WNW 26 44 14 24 - - 3.8
01/07:04am -3.9 -11.7 -4.0 99 -0.1 W 28 46 15 25 - - 3.8
01/07:00am -3.9 -12.5 -4.0 99 -0.1 W 32 46 17 25 - - 3.8
01/06:32am -3.5 -11.3 -3.6 99 -0.1 W 28 56 15 30 - - 3.8
01/06:30am -3.3 -10.7 -3.4 99 -0.1 W 26 43 14 23 - - 3.8
01/06:23am -3.5 -12.0 -3.6 99 -0.1 WSW 32 50 17 27 - - 3.8
01/06:20am -3.6 -13.5 -3.7 99 -0.1 W 39 50 21 27 - - 3.8
01/06:13am -3.6 -12.7 -3.7 99 -0.1 WNW 35 56 19 30 - - 3.8
01/06:00am -3.3 -11.8 -3.4 99 -0.1 W 32 39 17 21 - - 3.8
01/05:30am -2.9 -10.6 -3.0 99 -0.1 W 28 48 15 26 - - 3.8
01/05:11am -2.8 -12.2 -2.9 99 -0.1 W 37 61 20 33 - - 3.8
01/05:06am -2.7 -11.1 -2.8 99 -0.1 WSW 32 48 17 26 - - 3.8
01/05:02am -2.5 -12.2 -2.6 99 -0.1 WNW 39 57 21 31 - - 3.6
01/05:00am -2.6 -12.7 -2.7 99 -0.1 WNW 41 57 22 31 - - 3.6
01/04:30am -2.4 -10.4 -2.5 99 -0.1 WNW 30 50 16 27 - - 3.6
01/04:00am -1.9 -10.2 -2.0 99 -0.1 WNW 32 48 17 26 - - 3.4
01/03:30am -1.6 -11.2 -1.7 99 0.0 WNW 39 59 21 32 - - 3.0
01/03:00am -1.3 -10.9 -1.4 99 0.0 W 39 61 21 33 - - 2.8
01/02:59am -1.3 -10.9 -1.4 99 0.0 W 39 61 21 33 - - 2.8
01/02:54am -1.1 -9.9 -1.2 99 0.0 WNW 35 50 19 27 - - 2.8
01/02:52am -1.0 -10.9 -1.1 99 0.0 WSW 41 59 22 32 - - 2.8
01/02:50am -0.3 -10.7 -0.4 99 0.0 WSW 44 59 24 32 - - 2.8
01/02:30am -0.2 -10.6 -0.3 99 0.0 W 44 72 24 39 - - 2.2
01/02:02am 0.3 -9.1 0.2 99 0.0 WNW 39 57 21 31 - - 1.4
01/02:00am 0.3 -9.4 0.2 99 0.0 WNW 41 57 22 31 - - 1.2
01/01:30am 1.1 -8.9 1.0 99 0.0 WNW 43 70 23 38 - - 0.2
01/01:00am 1.4 -8.7 1.3 99 0.0 NW 44 76 24 41 - - 0.0
01/12:45am 1.7 -7.4 1.6 99 0.0 WNW 39 67 21 36 - - 0.0
01/12:31am 2.3 -4.9 0.7 89 0.7 WNW 28 46 15 25 - - 0.0
01/12:30am 2.4 -5.2 0.5 87 0.8 WNW 30 43 16 23 - - 0.0
01/12:00am 4.3 -5.4 -2.3 62 2.6 WNW 39 59 21 32 - - 0.0
 
Date/Time
EST
Temp
°C
App
Temp
°C
Dew
Point
Rel
Hum
%
Delta-T
°C
Wind Press
QNH
hPa
Press
MSL
hPa
Rain
since 9 am
mm
Dir
 
Spd
km/h
Gust
km/h
Spd
kts
Gust
kts
31/11:30pm 5.8 -6.1 -3.0 53 3.5 WNW 50 74 27 40 - - 0.0
31/11:10pm 6.5 -5.4 -3.4 49 3.9 WNW 50 85 27 46 - - 0.0
31/11:00pm 6.5 -4.1 -3.2 50 3.8 WNW 43 61 23 33 - - 0.0
31/10:30pm 6.7 -2.8 -3.5 48 4.0 NW 37 56 20 30 - - 0.0
31/10:00pm 6.7 -3.2 -3.8 47 4.1 NNW 39 57 21 31 - - 0.0
31/09:30pm 6.7 -3.2 -3.8 47 4.1 NW 39 63 21 34 - - 0.0
31/09:11pm 6.7 -2.8 -4.1 46 4.2 NW 37 56 20 30 - - 0.0
31/09:00pm 6.5 -2.6 -4.0 47 4.1 NW 35 50 19 27 - - 0.0
31/08:30pm 6.3 -2.4 -3.6 49 3.9 NNW 33 54 18 29 - - 0.0
31/08:05pm 6.4 -1.4 -3.5 49 3.9 NW 28 57 15 31 - - 0.0
31/08:00pm 6.2 -1.5 -3.2 51 3.7 NW 28 44 15 24 - - 0.0
31/07:32pm 6.3 -2.1 -2.8 52 3.6 NW 32 54 17 29 - - 0.0
31/07:30pm 6.1 -1.9 -2.5 54 3.4 NW 30 46 16 25 - - 0.0
31/07:00pm 6.0 -1.9 -1.9 57 3.2 NW 30 48 16 26 - - 0.0
31/06:30pm 5.9 -2.3 -1.0 61 2.9 NW 32 54 17 29 - - 0.0
31/06:00pm 5.8 -2.8 0.0 66 2.5 NW 35 57 19 31 - - 0.0
31/05:30pm 5.5 -2.0 1.2 74 1.9 WNW 30 52 16 28 - - 0.0
31/05:00pm 5.8 -1.4 3.1 83 1.2 NW 30 50 16 27 - - 0.0
31/04:42pm 5.8 -1.7 3.6 86 1.0 NW 32 50 17 27 - - 0.0
31/04:30pm 5.9 -1.6 3.2 83 1.2 NW 32 44 17 24 - - 0.0
31/04:00pm 7.0 -1.0 1.9 70 2.3 WNW 33 54 18 29 - - 0.0
31/03:30pm 7.1 -2.1 1.4 67 2.5 WNW 39 61 21 33 - - 0.0
31/03:00pm 7.3 -3.2 1.2 65 2.7 WNW 46 67 25 36 - - 0.0
31/02:30pm 7.3 -4.8 1.0 64 2.8 WNW 54 83 29 45 - - 0.0
31/02:00pm 7.5 -4.3 0.7 62 3.0 WNW 52 72 28 39 - - 0.0
31/01:30pm 7.2 -4.5 0.9 64 2.8 WNW 52 76 28 41 - - 0.0
31/01:00pm 6.9 -3.6 1.6 69 2.4 WNW 46 67 25 36 - - 0.0
31/12:30pm 6.4 -5.3 1.3 70 2.2 WNW 52 78 28 42 - - 0.0
31/12:00pm 6.0 -6.1 1.2 71 2.1 WNW 54 76 29 41 - - 0.0
31/11:30am 6.0 -4.4 2.1 76 1.7 NW 46 74 25 40 - - 0.0
31/11:00am 5.4 -4.0 2.6 82 1.3 WNW 41 61 22 33 - - 0.0
31/10:30am 5.3 -4.1 2.5 82 1.3 WNW 41 59 22 32 - - 0.0
31/10:00am 5.0 -4.9 1.8 80 1.4 WNW 43 65 23 35 - - 0.0
31/09:38am 4.9 -4.3 1.4 78 1.5 WNW 39 57 21 31 - - 0.0
31/09:30am 4.8 -4.8 1.3 78 1.5 WNW 41 57 22 31 - - 0.0
31/09:11am 4.8 -4.0 1.5 79 1.4 NW 37 56 20 30 - - 0.0
31/09:00am 4.8 -3.6 1.8 81 1.3 NW 35 50 19 27 - - 8.2
31/08:37am 4.5 -4.1 2.5 87 0.9 NW 37 56 20 30 - - 8.2
31/08:30am 4.5 -4.1 2.8 89 0.8 NW 37 48 20 26 - - 8.2
31/08:00am 4.2 -3.2 4.1 99 0.0 NW 32 50 17 27 - - 8.2
31/07:42am 4.2 -3.7 4.2 100 0.0 NW 35 54 19 29 - - 8.2
31/07:30am 4.2 -3.7 4.2 100 0.0 NW 35 52 19 28 - - 8.2
31/07:00am 3.8 -3.8 3.8 100 0.0 WNW 33 46 18 25 - - 8.2
31/06:39am 3.8 -3.3 3.8 100 0.0 NW 30 48 16 26 - - 8.2
31/06:30am 3.9 -3.7 3.9 100 0.0 NW 33 50 18 27 - - 8.2
31/06:21am 3.9 -3.5 3.9 100 0.0 NW 32 50 17 27 - - 8.2
31/06:00am 3.9 -2.8 3.9 100 0.0 WNW 28 37 15 20 - - 8.2
31/05:30am 4.1 -2.5 4.1 100 0.0 NW 28 41 15 22 - - 8.2
31/05:00am 4.2 -2.4 4.2 100 0.0 WNW 28 41 15 22 - - 8.2
31/04:46am 4.2 -3.2 4.2 100 0.0 WNW 32 50 17 27 - - 8.2
31/04:30am 4.3 -2.3 4.3 100 0.0 WNW 28 39 15 21 - - 8.2
31/04:06am 4.3 -2.7 4.3 100 0.0 WNW 30 48 16 26 - - 8.2
31/04:00am 4.3 -3.2 4.3 100 0.0 WNW 33 44 18 24 - - 8.2
31/03:30am 4.5 -4.5 4.5 100 0.0 WNW 41 65 22 35 - - 8.2
31/03:00am 4.5 -3.7 4.5 100 0.0 WNW 37 57 20 31 - - 8.2
31/02:30am 4.5 -4.1 4.5 100 0.0 WNW 39 69 21 37 - - 8.2
31/02:09am 4.7 -3.9 4.7 100 0.0 WNW 39 59 21 32 - - 8.2
31/02:00am 4.5 -4.1 4.5 100 0.0 WNW 39 56 21 30 - - 8.2
31/01:30am 4.7 -3.1 4.7 100 0.0 WNW 35 59 19 32 - - 8.2
31/01:01am 4.8 -3.8 4.8 100 0.0 WNW 39 57 21 31 - - 8.2
31/01:00am 4.7 -4.3 4.7 100 0.0 WNW 41 57 22 31 - - 8.2
31/12:30am 4.6 -4.4 4.6 100 0.0 WNW 41 63 22 34 - - 8.2
31/12:00am 4.8 -3.8 4.8 100 0.0 WNW 39 65 21 35 - - 8.2
 
Date/Time
EST
Temp
°C
App
Temp
°C
Dew
Point
Rel
Hum
%
Delta-T
°C
Wind Press
QNH
hPa
Press
MSL
hPa
Rain
since 9 am
mm
Dir
 
Spd
km/h
Gust
km/h
Spd
kts
Gust
kts
30/11:30pm 4.8 -3.8 4.8 100 0.0 WNW 39 59 21 32 - - 8.2
30/11:00pm 5.0 -3.2 5.0 100 0.0 WNW 37 59 20 32 - - 8.2
30/10:30pm 4.9 -4.6 4.9 100 0.0 WNW 44 67 24 36 - - 8.2
30/10:00pm 4.8 -5.5 4.8 100 0.0 W 48 74 26 40 - - 8.2
30/09:30pm 4.9 -4.4 4.9 100 0.0 W 43 67 23 36 - - 8.2
30/09:00pm 4.9 -5.4 4.9 100 0.0 W 48 80 26 43 - - 8.2
30/08:30pm 4.9 -5.7 4.9 100 0.0 W 50 70 27 38 - - 8.2
30/08:00pm 4.6 -5.0 4.6 100 0.0 W 44 65 24 35 - - 8.2
30/07:30pm 4.8 -5.5 4.8 100 0.0 W 48 74 26 40 - - 8.2
30/07:00pm 4.7 -5.2 4.7 100 0.0 W 46 70 25 38 - - 8.2
30/06:30pm 4.6 -5.3 4.6 100 0.0 W 46 72 25 39 - - 8.2
30/06:01pm 4.6 -5.0 4.6 100 0.0 WNW 44 65 24 35 - - 8.2
30/06:00pm 4.6 -5.0 4.6 100 0.0 WNW 44 61 24 33 - - 8.2
30/05:30pm 4.5 -6.2 4.5 100 0.0 W 50 83 27 45 - - 8.0
30/05:00pm 4.4 -6.3 4.4 100 0.0 W 50 69 27 37 - - 7.8
30/04:30pm 4.2 -5.4 4.2 100 0.0 WNW 44 74 24 40 - - 7.8
30/04:00pm 4.2 -4.5 4.2 100 0.0 WNW 39 63 21 34 - - 7.8
30/03:30pm 4.2 -5.8 4.2 100 0.0 WNW 46 74 25 40 - - 7.6
30/03:00pm 4.1 -6.7 4.1 100 0.0 W 50 74 27 40 - - 7.6
30/02:48pm 4.3 -5.1 4.3 100 0.0 W 43 70 23 38 - - 7.2
30/02:30pm 4.5 -2.8 4.5 100 0.0 WNW 32 50 17 27 - - 5.8
30/02:21pm 4.4 -2.9 4.4 100 0.0 WNW 32 50 17 27 - - 5.0
30/02:00pm 4.3 -3.2 4.3 100 0.0 WNW 33 48 18 26 - - 4.2
30/01:30pm 4.1 -5.0 4.1 100 0.0 WNW 41 65 22 35 - - 3.8
30/01:00pm 4.0 -4.3 4.0 100 0.0 W 37 59 20 32 - - 2.6
30/12:30pm 4.0 -3.4 4.0 100 0.0 WNW 32 57 17 31 - - 1.8
30/12:00pm 4.0 -5.5 4.0 100 0.0 WNW 43 65 23 35 - - 1.4
30/11:34am 4.1 -5.0 4.1 100 0.0 W 41 65 22 35 - - 1.0
30/11:30am 4.1 -5.0 4.1 100 0.0 W 41 57 22 31 - - 1.0
30/11:00am 4.0 -4.7 4.0 100 0.0 WNW 39 65 21 35 - - 0.8
30/10:30am 4.1 -4.2 4.1 100 0.0 WNW 37 63 20 34 - - 0.8
30/10:00am 4.1 -3.8 4.1 100 0.0 W 35 63 19 34 - - 0.8
30/09:30am 4.1 -3.8 4.1 100 0.0 WNW 35 56 19 30 - - 0.4
30/09:00am 4.1 -5.4 4.1 100 0.0 WNW 43 65 23 35 - - 2.6
30/08:30am 4.0 -5.7 4.0 100 0.0 W 44 63 24 34 - - 2.4
30/08:00am 4.0 -5.1 4.0 100 0.0 WNW 41 61 22 33 - - 2.2
30/07:30am 4.0 -4.7 4.0 100 0.0 W 39 57 21 31 - - 1.6
30/07:00am 4.0 -5.5 4.0 100 0.0 WNW 43 67 23 36 - - 1.6
30/06:30am 4.0 -7.6 4.0 100 0.0 WNW 54 85 29 46 - - 1.6
30/06:00am 4.0 -5.7 4.0 100 0.0 WNW 44 76 24 41 - - 1.4
30/05:30am 3.8 -6.3 3.8 100 0.0 W 46 85 25 46 - - 1.0
30/05:00am 4.0 -5.7 4.0 100 0.0 W 44 69 24 37 - - 1.0
30/04:30am 3.9 -6.6 3.9 100 0.0 W 48 78 26 42 - - 1.0
30/04:04am 3.9 -5.6 3.9 100 0.0 W 43 87 23 47 - - 0.8
30/04:00am 3.9 -5.2 3.9 100 0.0 W 41 67 22 36 - - 0.8
30/03:30am 3.8 -6.3 3.7 99 0.0 W 46 76 25 41 - - 0.4
30/03:00am 3.8 -5.3 3.8 100 0.0 W 41 65 22 35 - - 0.0
30/02:30am 3.7 -5.9 3.6 99 0.0 W 43 76 23 41 - - 0.0
30/02:00am 3.7 -6.4 3.6 99 0.0 W 46 67 25 36 - - 0.0
30/01:30am 3.5 -6.1 3.4 99 0.0 W 43 65 23 35 - - 0.0
30/01:00am 3.5 -6.7 3.4 99 0.0 W 46 70 25 38 - - 0.0
30/12:30am 3.4 -6.8 3.3 99 0.0 W 46 69 25 37 - - 0.0
30/12:00am 3.3 -7.3 3.2 99 0.0 W 48 70 26 38 - - 0.0
 
Date/Time
EST
Temp
°C
App
Temp
°C
Dew
Point
Rel
Hum
%
Delta-T
°C
Wind Press
QNH
hPa
Press
MSL
hPa
Rain
since 9 am
mm
Dir
 
Spd
km/h
Gust
km/h
Spd
kts
Gust
kts
29/11:30pm 3.4 -6.8 3.3 99 0.0 W 46 67 25 36 - - 0.0
29/11:00pm 3.5 -7.0 3.4 99 0.0 W 48 69 26 37 - - 0.0
29/10:30pm 3.6 -6.4 2.1 90 0.7 W 44 76 24 41 - - 0.0
29/10:00pm 3.7 -6.9 0.9 82 1.2 W 46 80 25 43 - - 0.0
29/09:30pm 3.5 -6.1 0.9 83 1.1 W 41 65 22 35 - - 0.0
29/09:00pm 3.6 -5.7 0.7 81 1.2 W 39 63 21 34 - - 0.0
29/08:35pm 3.6 -6.1 0.8 82 1.2 W 41 59 22 32 - - 0.0
29/08:30pm 3.6 -6.4 1.0 83 1.1 W 43 59 23 32 - - 0.0
29/08:00pm 3.6 -6.0 1.2 84 1.0 WNW 41 57 22 31 - - 0.0
29/07:59pm 3.6 -6.0 1.2 84 1.0 WNW 41 57 22 31 - - 0.0
29/07:30pm 3.4 -3.7 1.4 87 0.9 WNW 28 39 15 21 - - 0.0
29/07:00pm 3.2 -3.8 1.7 90 0.6 W 28 39 15 21 - - 0.0
29/06:30pm 3.2 -3.8 1.9 91 0.6 WNW 28 37 15 20 - - 0.0
29/06:16pm 3.1 -3.9 2.1 93 0.4 WNW 28 46 15 25 - - 0.0
29/06:00pm 3.1 -3.9 2.1 93 0.4 WNW 28 43 15 23 - - 0.0
29/05:55pm 3.1 -4.3 2.1 93 0.4 WNW 30 48 16 26 - - 0.0
29/05:30pm 3.1 -3.9 2.2 94 0.4 WNW 28 44 15 24 - - 0.0
29/05:00pm 3.4 -4.0 2.1 91 0.6 WNW 30 44 16 24 - - 0.0
29/04:30pm 3.5 -5.0 1.2 85 1.0 W 35 56 19 30 - - 0.0
29/04:00pm 4.1 -4.4 0.8 79 1.4 W 35 56 19 30 - - 0.0
29/03:57pm 4.1 -4.8 0.8 79 1.4 W 37 56 20 30 - - 0.0
29/03:30pm 4.7 -3.5 0.5 74 1.8 WNW 33 46 18 25 - - 0.0
29/03:00pm 4.5 -5.9 -0.5 70 2.1 W 44 63 24 34 - - 0.0
29/02:30pm 4.8 -5.1 -0.6 68 2.2 W 41 67 22 36 - - 0.0
29/02:00pm 5.0 -4.6 -1.2 64 2.5 W 39 63 21 34 - - 0.0
29/01:30pm 5.1 -5.1 -0.3 68 2.3 W 43 61 23 33 - - 0.0
29/01:25pm 5.1 -4.7 -0.3 68 2.3 WNW 41 59 22 32 - - 0.0
29/01:24pm 5.1 -5.1 -0.5 67 2.3 WNW 43 59 23 32 - - 0.0
29/01:19pm 5.2 -5.0 -0.4 67 2.3 W 43 61 23 33 - - 0.0
29/01:18pm 5.3 -4.1 -0.3 67 2.3 W 39 54 21 29 - - 0.0
29/01:00pm 5.4 -5.9 -1.1 63 2.7 WNW 48 70 26 38 - - 0.0
29/12:30pm 5.2 -4.2 -0.2 68 2.3 NW 39 63 21 34 - - 0.0
29/12:14pm 4.7 -3.5 0.3 73 1.9 WNW 33 65 18 35 - - 0.0
29/12:00pm 4.6 -2.6 0.7 76 1.7 WNW 28 46 15 25 - - 0.0
29/11:38am 4.4 -3.7 0.7 77 1.6 WNW 33 52 18 28 - - 0.0

Other Formats:

Comma delimited format used in spreadsheet applications
http://www.bom.gov.au/fwo/IDN60801/IDN60801.95916.axf

JavaScript Object Notation format (JSON) in row-major order
http://www.bom.gov.au/fwo/IDN60801/IDN60801.95916.json